createdAt,value
2022-08-19T00:01:43.542Z,22.80
2022-08-19T00:04:15.907Z,22.80
2022-08-19T00:06:45.135Z,22.80
2022-08-19T00:09:15.739Z,22.80
2022-08-19T00:11:44.688Z,22.80
2022-08-19T00:14:14.787Z,22.80
2022-08-19T00:16:44.138Z,22.80
2022-08-19T00:19:12.235Z,22.80
2022-08-19T00:21:40.572Z,22.80
2022-08-19T00:24:10.599Z,22.80
2022-08-19T00:26:38.712Z,22.80
2022-08-19T00:29:07.506Z,22.80
2022-08-19T00:31:34.953Z,22.80
2022-08-19T00:34:02.458Z,22.80
2022-08-19T00:36:30.164Z,22.80
2022-08-19T00:38:57.464Z,22.80
2022-08-19T00:41:25.091Z,22.80
2022-08-19T00:44:02.616Z,22.80
2022-08-19T00:46:30.120Z,22.80
2022-08-19T00:48:58.629Z,22.80
2022-08-19T00:51:31.531Z,22.80
2022-08-19T00:53:59.888Z,22.80
2022-08-19T00:56:27.994Z,22.80
2022-08-19T00:58:59.310Z,22.80
2022-08-19T01:01:27.206Z,22.80
2022-08-19T01:03:57.533Z,22.80
2022-08-19T01:06:27.174Z,22.80
2022-08-19T01:08:56.368Z,22.80
2022-08-19T01:11:23.711Z,22.80
2022-08-19T01:13:53.190Z,22.70
2022-08-19T01:16:23.097Z,22.80
2022-08-19T01:18:50.818Z,22.80
2022-08-19T01:21:40.899Z,22.80
2022-08-19T01:24:08.210Z,22.80
2022-08-19T01:26:44.615Z,22.80
2022-08-19T01:29:13.257Z,22.80
2022-08-19T01:31:42.263Z,22.80
2022-08-19T01:34:10.041Z,22.80
2022-08-19T01:36:46.625Z,22.90
2022-08-19T01:39:17.382Z,22.90
2022-08-19T01:41:44.705Z,22.90
2022-08-19T01:44:18.100Z,22.90
2022-08-19T01:46:48.933Z,22.90
2022-08-19T01:49:18.543Z,22.90
2022-08-19T01:51:45.858Z,22.90
2022-08-19T01:54:27.465Z,22.90
2022-08-19T01:57:06.025Z,22.90
2022-08-19T01:59:34.742Z,22.90
2022-08-19T02:02:02.288Z,22.90
2022-08-19T02:04:29.551Z,22.80
2022-08-19T02:06:58.389Z,22.80
2022-08-19T02:09:25.646Z,22.80
2022-08-19T02:11:52.976Z,22.80
2022-08-19T02:14:20.272Z,22.80
2022-08-19T02:16:47.571Z,22.80
2022-08-19T02:19:14.903Z,22.80
2022-08-19T02:21:42.513Z,22.80
2022-08-19T02:24:10.187Z,22.80
2022-08-19T02:26:37.541Z,22.80
2022-08-19T02:29:04.842Z,22.80
2022-08-19T02:31:32.243Z,22.80
2022-08-19T02:33:59.658Z,23.60
2022-08-19T02:36:27.382Z,22.70
2022-08-19T02:38:55.933Z,22.70
2022-08-19T02:41:28.269Z,22.70
2022-08-19T02:44:26.593Z,22.70
2022-08-19T02:46:51.618Z,22.70
2022-08-19T02:49:20.823Z,22.80
2022-08-19T02:51:48.642Z,22.70
2022-08-19T02:54:16.796Z,22.70
2022-08-19T02:56:44.851Z,22.70
2022-08-19T02:59:12.788Z,22.70
2022-08-19T03:01:43.054Z,22.70
2022-08-19T03:04:13.799Z,22.70
2022-08-19T03:06:43.638Z,22.70
2022-08-19T03:09:11.993Z,22.70
2022-08-19T03:11:39.373Z,22.70
2022-08-19T03:14:08.512Z,22.70
2022-08-19T03:16:42.615Z,22.70
2022-08-19T03:19:10.003Z,22.70
2022-08-19T03:21:37.423Z,22.70
2022-08-19T03:24:08.485Z,22.70
2022-08-19T03:26:40.412Z,22.70
2022-08-19T03:29:10.433Z,22.70
2022-08-19T03:31:44.795Z,22.80
2022-08-19T03:34:28.383Z,22.80
2022-08-19T03:36:58.672Z,22.80
2022-08-19T03:39:27.326Z,22.80
2022-08-19T03:42:38.082Z,22.80
2022-08-19T03:44:46.035Z,22.80
2022-08-19T03:47:16.858Z,22.80
2022-08-19T03:49:44.696Z,22.80
2022-08-19T03:52:12.442Z,22.80
2022-08-19T03:54:40.290Z,22.80
2022-08-19T03:57:07.935Z,22.90
2022-08-19T03:59:38.192Z,22.90
2022-08-19T04:02:11.318Z,22.90
2022-08-19T04:04:44.261Z,22.90
2022-08-19T04:07:16.745Z,22.90
2022-08-19T04:09:44.234Z,22.90
2022-08-19T04:12:11.579Z,22.90
2022-08-19T04:14:38.989Z,22.90
2022-08-19T04:17:06.513Z,22.90
2022-08-19T04:19:35.879Z,22.90
2022-08-19T04:22:03.675Z,22.90
2022-08-19T04:24:31.243Z,22.80
2022-08-19T04:27:01.174Z,22.80
2022-08-19T04:29:28.670Z,22.80
2022-08-19T04:31:57.230Z,22.80
2022-08-19T04:34:27.221Z,22.80
2022-08-19T04:36:56.193Z,22.80
2022-08-19T04:39:48.746Z,22.80
2022-08-19T04:42:36.600Z,22.80
2022-08-19T04:45:05.601Z,22.80
2022-08-19T04:47:47.115Z,22.80
2022-08-19T04:50:26.937Z,22.80
2022-08-19T04:52:54.644Z,22.80
2022-08-19T04:55:22.247Z,22.80
2022-08-19T04:57:49.916Z,22.80
2022-08-19T05:00:17.270Z,22.80
2022-08-19T05:02:44.579Z,22.80
2022-08-19T05:05:11.879Z,22.80
2022-08-19T05:07:39.859Z,22.80
2022-08-19T05:10:08.349Z,22.80
2022-08-19T05:12:35.684Z,22.80
2022-08-19T05:15:05.088Z,22.80
2022-08-19T05:17:38.087Z,22.80
2022-08-19T05:20:28.856Z,22.80
2022-08-19T05:22:56.329Z,22.80
2022-08-19T05:25:25.280Z,22.80
2022-08-19T05:27:52.653Z,22.80
2022-08-19T05:30:33.389Z,22.80
2022-08-19T05:33:12.302Z,22.80
2022-08-19T05:35:40.355Z,22.80
2022-08-19T05:38:09.223Z,22.80
2022-08-19T05:40:37.220Z,22.90
2022-08-19T05:43:06.471Z,22.80
2022-08-19T05:45:38.456Z,22.80
2022-08-19T05:48:06.021Z,22.90
2022-08-19T05:50:33.276Z,22.80
2022-08-19T05:53:00.611Z,22.80
2022-08-19T05:55:27.896Z,22.80
2022-08-19T05:58:03.166Z,22.80
2022-08-19T06:00:32.323Z,22.80
2022-08-19T06:03:09.610Z,22.90
2022-08-19T06:05:49.527Z,22.90
2022-08-19T06:08:19.704Z,22.80
2022-08-19T06:10:47.047Z,22.90
2022-08-19T06:13:14.428Z,22.90
2022-08-19T06:15:44.895Z,22.90
2022-08-19T06:18:14.324Z,22.90
2022-08-19T06:20:55.370Z,22.90
2022-08-19T06:23:24.276Z,22.90
2022-08-19T06:25:51.764Z,22.90
2022-08-19T06:28:19.297Z,22.90
2022-08-19T06:30:46.696Z,22.90
2022-08-19T06:33:13.994Z,22.90
2022-08-19T06:35:42.513Z,22.90
2022-08-19T06:38:10.599Z,22.90
2022-08-19T06:40:39.351Z,22.90
2022-08-19T06:43:08.602Z,22.90
2022-08-19T06:45:39.794Z,22.80
2022-08-19T06:48:08.037Z,22.80
2022-08-19T06:50:36.856Z,22.90
2022-08-19T06:53:07.082Z,22.80
2022-08-19T06:55:34.352Z,22.80
2022-08-19T06:58:05.283Z,22.80
2022-08-19T07:00:33.398Z,22.90
2022-08-19T07:03:04.562Z,22.90
2022-08-19T07:05:40.551Z,22.90
2022-08-19T07:08:12.660Z,22.90
2022-08-19T07:10:44.719Z,22.90
2022-08-19T07:13:12.596Z,22.80
2022-08-19T07:15:41.310Z,22.90
2022-08-19T07:18:11.725Z,22.90
2022-08-19T07:20:41.826Z,22.90
2022-08-19T07:23:15.994Z,22.90
2022-08-19T07:25:44.470Z,22.80
2022-08-19T07:28:23.052Z,22.80
2022-08-19T07:30:53.248Z,22.80
2022-08-19T07:33:20.911Z,22.70
2022-08-19T07:35:48.339Z,22.70
2022-08-19T07:38:17.383Z,22.70
2022-08-19T07:40:47.333Z,22.70
2022-08-19T07:43:17.337Z,22.70
2022-08-19T07:45:46.429Z,22.70
2022-08-19T07:48:13.936Z,22.70
2022-08-19T07:50:41.477Z,22.70
2022-08-19T07:53:08.768Z,22.70
2022-08-19T07:55:43.539Z,22.70
2022-08-19T07:58:14.815Z,22.70
2022-08-19T08:00:43.443Z,22.70
2022-08-19T08:03:11.937Z,22.70
2022-08-19T08:05:57.591Z,22.60
2022-08-19T08:08:44.530Z,22.60
2022-08-19T08:11:20.025Z,22.60
2022-08-19T08:14:01.060Z,22.60
2022-08-19T08:16:39.382Z,22.60
2022-08-19T08:19:14.755Z,22.60
2022-08-19T08:21:54.367Z,22.60
2022-08-19T08:24:21.968Z,22.60
2022-08-19T08:26:57.089Z,22.60
2022-08-19T08:29:26.806Z,22.60
2022-08-19T08:32:03.032Z,22.60
2022-08-19T08:34:30.360Z,22.50
2022-08-19T08:36:57.658Z,22.50
2022-08-19T08:39:24.940Z,22.50
2022-08-19T08:42:10.321Z,22.50
2022-08-19T08:44:51.334Z,22.50
2022-08-19T08:47:23.336Z,22.50
2022-08-19T08:50:12.288Z,22.50
2022-08-19T08:52:45.501Z,22.50
2022-08-19T08:55:20.729Z,22.50
2022-08-19T08:58:08.520Z,22.50
2022-08-19T09:00:39.438Z,22.40
2022-08-19T09:03:17.381Z,21.90
2022-08-19T09:05:57.243Z,21.20
2022-08-19T09:08:46.891Z,20.80
2022-08-19T09:11:42.860Z,20.90
2022-08-19T09:14:56.001Z,21.10
2022-08-19T09:17:36.363Z,21.30
2022-08-19T09:20:17.545Z,21.40
2022-08-19T09:22:47.583Z,21.50
2022-08-19T09:25:24.536Z,21.60
2022-08-19T09:28:02.537Z,21.80
2022-08-19T09:30:40.615Z,21.90
2022-08-19T09:33:08.888Z,22.00
2022-08-19T09:35:49.629Z,22.10
2022-08-19T09:38:20.140Z,22.10
2022-08-19T09:40:47.432Z,22.10
2022-08-19T09:43:14.720Z,22.00
2022-08-19T09:45:42.227Z,22.10
2022-08-19T09:48:11.787Z,22.10
2022-08-19T09:50:51.494Z,22.20
2022-08-19T09:53:25.462Z,22.30
2022-08-19T09:55:56.103Z,22.30
2022-08-19T09:58:28.547Z,22.40
2022-08-19T10:00:56.617Z,22.40
2022-08-19T10:03:25.574Z,22.40
2022-08-19T10:05:59.275Z,22.40
2022-08-19T10:08:31.405Z,22.40
2022-08-19T10:11:00.081Z,22.30
2022-08-19T10:13:47.978Z,22.20
2022-08-19T10:16:22.533Z,22.30
2022-08-19T10:18:59.032Z,22.30
2022-08-19T10:21:32.179Z,22.30
2022-08-19T10:24:02.652Z,22.30
2022-08-19T10:26:33.702Z,22.30
2022-08-19T10:29:01.396Z,22.30
2022-08-19T10:32:00.569Z,22.40
2022-08-19T10:34:27.597Z,22.50
2022-08-19T10:37:00.829Z,22.50
2022-08-19T10:39:31.161Z,22.50
2022-08-19T10:41:58.942Z,22.50
2022-08-19T10:44:32.141Z,22.50
2022-08-19T10:47:00.213Z,22.50
2022-08-19T10:49:28.025Z,22.50
2022-08-19T10:52:32.338Z,22.50
2022-08-19T10:55:18.988Z,22.50
2022-08-19T10:58:04.097Z,22.60
2022-08-19T11:00:32.727Z,22.60
2022-08-19T11:03:00.093Z,22.60
2022-08-19T11:05:27.428Z,22.60
2022-08-19T11:07:54.839Z,22.60
2022-08-19T11:10:22.955Z,22.60
2022-08-19T11:12:54.081Z,22.60
2022-08-19T11:15:22.296Z,22.60
2022-08-19T11:17:49.744Z,22.60
2022-08-19T11:20:17.272Z,22.60
2022-08-19T11:22:44.573Z,22.60
2022-08-19T11:25:12.455Z,22.60
2022-08-19T11:27:43.550Z,22.70
2022-08-19T11:30:13.250Z,22.70
2022-08-19T11:32:48.723Z,22.70
2022-08-19T11:35:17.231Z,22.70
2022-08-19T11:37:44.586Z,22.70
2022-08-19T11:40:12.660Z,22.80
2022-08-19T11:42:58.401Z,22.80
2022-08-19T11:45:27.916Z,22.80
2022-08-19T11:47:55.782Z,22.80
2022-08-19T11:50:25.562Z,22.70
2022-08-19T11:52:57.617Z,22.60
2022-08-19T11:55:25.430Z,22.60
2022-08-19T11:57:52.924Z,22.60
2022-08-19T12:00:20.498Z,22.60
2022-08-19T12:02:47.789Z,22.60
2022-08-19T12:05:15.197Z,22.50
2022-08-19T12:07:43.620Z,22.50
2022-08-19T12:10:11.663Z,22.50
2022-08-19T12:12:43.726Z,22.50
2022-08-19T12:15:15.259Z,22.40
2022-08-19T12:17:43.596Z,22.40
2022-08-19T12:20:12.207Z,22.40
2022-08-19T12:22:40.345Z,22.50
2022-08-19T12:25:10.229Z,22.60
2022-08-19T12:27:40.851Z,22.50
2022-08-19T12:30:13.485Z,22.50
2022-08-19T12:32:41.217Z,22.50
2022-08-19T12:35:11.422Z,22.60
2022-08-19T12:37:39.704Z,22.50
2022-08-19T12:40:07.679Z,22.50
2022-08-19T12:42:35.810Z,22.50
2022-08-19T12:45:03.273Z,22.50
2022-08-19T12:47:33.827Z,22.50
2022-08-19T12:50:10.001Z,22.40
2022-08-19T12:52:38.187Z,22.50
2022-08-19T12:55:08.614Z,22.50
2022-08-19T12:57:37.419Z,22.50
2022-08-19T13:00:14.735Z,22.50
2022-08-19T13:02:45.694Z,22.60
2022-08-19T13:05:17.003Z,22.70
2022-08-19T13:07:47.573Z,22.70
2022-08-19T13:10:16.823Z,22.80
2022-08-19T13:12:45.942Z,22.80
2022-08-19T13:15:15.144Z,22.70
2022-08-19T13:17:43.142Z,22.70
2022-08-19T13:20:12.109Z,22.70
2022-08-19T13:22:39.760Z,22.70
2022-08-19T13:25:08.351Z,22.60
2022-08-19T13:27:36.461Z,22.70
2022-08-19T13:30:24.724Z,22.80
2022-08-19T13:33:10.820Z,22.80
2022-08-19T13:35:49.832Z,22.90
2022-08-19T13:38:22.481Z,23.00
2022-08-19T13:40:51.456Z,22.90
2022-08-19T13:43:23.406Z,22.90
2022-08-19T13:45:54.854Z,22.90
2022-08-19T13:48:22.676Z,22.90
2022-08-19T13:50:50.030Z,22.90
2022-08-19T13:53:18.375Z,22.90
2022-08-19T13:55:45.993Z,22.90
2022-08-19T13:58:14.444Z,22.90
2022-08-19T14:00:47.214Z,22.90
2022-08-19T14:03:15.778Z,22.90
2022-08-19T14:05:43.204Z,22.80
2022-08-19T14:08:10.487Z,22.80
2022-08-19T14:10:37.804Z,22.80
2022-08-19T14:13:05.437Z,22.80
2022-08-19T14:15:33.316Z,22.90
2022-08-19T14:18:00.833Z,22.90
2022-08-19T14:20:28.195Z,22.80
2022-08-19T14:22:56.099Z,22.80
2022-08-19T14:25:29.563Z,22.80
2022-08-19T14:27:57.569Z,22.80
2022-08-19T14:30:35.539Z,22.80
2022-08-19T14:33:03.397Z,22.80
2022-08-19T14:35:35.317Z,22.80
2022-08-19T14:38:07.587Z,22.80
2022-08-19T14:40:35.696Z,22.70
2022-08-19T14:43:05.494Z,22.80
2022-08-19T14:45:35.687Z,22.70
2022-08-19T14:48:09.244Z,22.70
2022-08-19T14:50:46.557Z,22.70
2022-08-19T14:53:13.978Z,22.60
2022-08-19T14:55:46.412Z,22.60
2022-08-19T14:58:29.435Z,22.50
2022-08-19T15:01:00.796Z,22.50
2022-08-19T15:03:30.441Z,22.50
2022-08-19T15:05:58.683Z,22.50
2022-08-19T15:08:27.980Z,22.50
2022-08-19T15:10:56.235Z,22.50
2022-08-19T15:13:25.719Z,22.50
2022-08-19T15:15:53.407Z,22.40
2022-08-19T15:18:21.417Z,22.40
2022-08-19T15:20:50.087Z,22.40
2022-08-19T15:23:18.998Z,22.50
2022-08-19T15:25:46.845Z,22.50
2022-08-19T15:28:17.298Z,22.50
2022-08-19T15:30:44.633Z,22.50
2022-08-19T15:33:15.288Z,22.50
2022-08-19T15:35:43.674Z,22.60
2022-08-19T15:38:14.103Z,22.60
2022-08-19T15:40:42.930Z,22.60
2022-08-19T15:43:13.965Z,22.60
2022-08-19T15:45:44.312Z,22.50
2022-08-19T15:48:14.817Z,22.50
2022-08-19T15:50:42.407Z,22.60
2022-08-19T15:53:11.398Z,22.60
2022-08-19T15:55:44.557Z,22.50
2022-08-19T15:58:32.966Z,22.50
2022-08-19T16:01:21.549Z,22.50
2022-08-19T16:04:14.960Z,22.50
2022-08-19T16:06:51.237Z,22.50
2022-08-19T16:09:26.447Z,22.50
2022-08-19T16:12:02.521Z,22.50
2022-08-19T16:14:33.113Z,22.50
2022-08-19T16:17:00.689Z,22.50
2022-08-19T16:19:28.007Z,22.50
2022-08-19T16:21:56.968Z,22.50
2022-08-19T16:24:26.737Z,22.50
2022-08-19T16:26:54.948Z,22.40
2022-08-19T16:29:34.819Z,22.40
2022-08-19T16:32:10.515Z,22.40
2022-08-19T16:34:40.640Z,22.40
2022-08-19T16:37:09.656Z,22.40
2022-08-19T16:39:37.514Z,22.40
2022-08-19T16:42:07.512Z,22.40
2022-08-19T16:44:36.464Z,22.40
2022-08-19T16:47:03.871Z,22.40
2022-08-19T16:49:54.227Z,22.40
2022-08-19T16:52:19.767Z,22.40
2022-08-19T16:54:48.047Z,22.30
2022-08-19T16:57:16.133Z,22.30
2022-08-19T16:59:49.245Z,22.30
2022-08-19T17:02:18.642Z,22.30
2022-08-19T17:04:48.336Z,22.40
2022-08-19T17:07:25.664Z,22.30
2022-08-19T17:09:52.966Z,22.40
2022-08-19T17:12:20.216Z,22.40
2022-08-19T17:14:47.632Z,22.40
2022-08-19T17:17:15.453Z,22.40
2022-08-19T17:19:44.605Z,22.40
2022-08-19T17:22:13.114Z,22.30
2022-08-19T17:24:41.009Z,22.30
2022-08-19T17:27:09.114Z,22.30
2022-08-19T17:29:36.441Z,22.30
2022-08-19T17:32:05.407Z,22.30
2022-08-19T17:34:33.636Z,22.40
2022-08-19T17:37:00.953Z,22.40
2022-08-19T17:39:28.332Z,22.30
2022-08-19T17:41:55.720Z,22.30
2022-08-19T17:44:29.880Z,22.30
2022-08-19T17:46:57.171Z,22.30
2022-08-19T17:49:24.449Z,22.30
2022-08-19T17:51:52.322Z,22.30
2022-08-19T17:54:20.180Z,22.30
2022-08-19T17:56:48.019Z,22.30
2022-08-19T17:59:16.070Z,22.30
2022-08-19T18:01:53.603Z,22.30
2022-08-19T18:04:24.968Z,22.30
2022-08-19T18:06:55.104Z,22.40
2022-08-19T18:09:28.793Z,22.30
2022-08-19T18:12:07.571Z,22.30
2022-08-19T18:14:37.908Z,22.40
2022-08-19T18:17:13.474Z,22.40
2022-08-19T18:19:43.253Z,22.30
2022-08-19T18:22:24.095Z,22.30
2022-08-19T18:24:51.434Z,22.30
2022-08-19T18:27:18.826Z,22.20
2022-08-19T18:29:46.297Z,22.30
2022-08-19T18:32:15.741Z,22.30
2022-08-19T18:34:44.359Z,22.20
2022-08-19T18:37:13.063Z,22.30
2022-08-19T18:39:59.098Z,22.30
2022-08-19T18:42:45.075Z,22.30
2022-08-19T18:45:32.763Z,22.30
2022-08-19T18:48:27.822Z,22.30
2022-08-19T18:50:57.599Z,22.30
2022-08-19T18:53:26.568Z,22.10
2022-08-19T18:55:55.263Z,22.10
2022-08-19T18:58:34.831Z,22.00
2022-08-19T19:01:14.640Z,22.00
2022-08-19T19:03:46.684Z,21.90
2022-08-19T19:06:28.018Z,21.80
2022-08-19T19:08:55.668Z,21.80
2022-08-19T19:11:30.264Z,21.80
2022-08-19T19:13:57.632Z,21.70
2022-08-19T19:16:24.950Z,21.60
2022-08-19T19:18:52.905Z,21.70
2022-08-19T19:21:23.080Z,21.70
2022-08-19T19:23:52.061Z,21.90
2022-08-19T19:26:19.425Z,21.90
2022-08-19T19:28:47.818Z,22.00
2022-08-19T19:31:18.431Z,22.10
2022-08-19T19:33:46.271Z,22.00
2022-08-19T19:36:13.834Z,22.00
2022-08-19T19:38:48.263Z,21.90
2022-08-19T19:41:19.244Z,21.80
2022-08-19T19:43:46.751Z,21.50
2022-08-19T19:46:15.621Z,21.40
2022-08-19T19:48:42.952Z,21.40
2022-08-19T19:51:10.325Z,21.60
2022-08-19T19:53:37.580Z,21.60
2022-08-19T19:56:05.069Z,21.70
2022-08-19T19:58:37.143Z,21.70
2022-08-19T20:01:09.798Z,21.70
2022-08-19T20:03:37.186Z,21.50
2022-08-19T20:06:04.540Z,21.60
2022-08-19T20:08:55.033Z,21.50
2022-08-19T20:11:43.016Z,21.50
2022-08-19T20:14:16.236Z,21.60
2022-08-19T20:16:45.970Z,21.70
2022-08-19T20:19:17.499Z,21.70
2022-08-19T20:21:49.612Z,21.70
2022-08-19T20:24:27.469Z,21.70
2022-08-19T20:26:56.107Z,21.70
2022-08-19T20:29:37.919Z,21.80
2022-08-19T20:32:07.603Z,21.70
2022-08-19T20:34:34.899Z,21.60
2022-08-19T20:37:02.204Z,21.60
2022-08-19T20:39:29.540Z,21.60
2022-08-19T20:41:56.845Z,21.60
2022-08-19T20:44:25.606Z,21.60
2022-08-19T20:46:56.107Z,21.50
2022-08-19T20:49:27.029Z,21.50
2022-08-19T20:51:56.399Z,21.40
2022-08-19T20:54:24.303Z,21.40
2022-08-19T20:56:52.920Z,21.40
2022-08-19T20:59:22.535Z,21.40
2022-08-19T21:01:51.953Z,21.40
2022-08-19T21:04:21.368Z,21.50
2022-08-19T21:06:49.887Z,21.40
2022-08-19T21:09:17.624Z,21.40
2022-08-19T21:11:45.582Z,21.40
2022-08-19T21:14:13.117Z,21.50
2022-08-19T21:16:40.367Z,21.50
2022-08-19T21:19:07.674Z,21.50
2022-08-19T21:21:35.080Z,21.50
2022-08-19T21:24:02.794Z,21.40
2022-08-19T21:26:30.193Z,21.40
2022-08-19T21:28:57.457Z,21.40
2022-08-19T21:31:24.788Z,21.40
2022-08-19T21:33:52.081Z,21.30
2022-08-19T21:36:19.481Z,21.40
2022-08-19T21:38:46.824Z,21.40
2022-08-19T21:41:14.174Z,21.30
2022-08-19T21:43:41.443Z,21.20
2022-08-19T21:46:09.159Z,21.30
2022-08-19T21:48:36.901Z,21.30
2022-08-19T21:51:04.247Z,21.30
2022-08-19T21:53:34.425Z,21.30
2022-08-19T21:56:03.644Z,21.20
2022-08-19T21:58:31.034Z,21.20
2022-08-19T22:00:59.797Z,21.10
2022-08-19T22:03:27.763Z,21.00
2022-08-19T22:05:55.050Z,21.00
2022-08-19T22:08:22.349Z,21.00
2022-08-19T22:10:49.797Z,21.00
2022-08-19T22:13:18.423Z,21.10
2022-08-19T22:15:46.669Z,21.10
2022-08-19T22:18:15.099Z,21.10
2022-08-19T22:20:42.339Z,21.10
2022-08-19T22:23:16.057Z,21.10
2022-08-19T22:25:47.609Z,21.30
2022-08-19T22:28:19.020Z,21.30
2022-08-19T22:30:56.033Z,21.30
2022-08-19T22:33:25.808Z,21.30
2022-08-19T22:35:53.404Z,21.40
2022-08-19T22:38:21.786Z,21.40
2022-08-19T22:40:50.881Z,21.40
2022-08-19T22:43:21.141Z,21.40
2022-08-19T22:45:50.096Z,21.50
2022-08-19T22:48:20.300Z,21.40
2022-08-19T22:51:08.332Z,21.40
2022-08-19T22:53:38.101Z,21.50
2022-08-19T22:56:10.808Z,21.70
2022-08-19T22:58:42.419Z,21.80
2022-08-19T23:01:27.271Z,21.90
2022-08-19T23:03:59.013Z,22.00
2022-08-19T23:06:33.066Z,22.10
2022-08-19T23:09:05.215Z,22.10
2022-08-19T23:11:41.532Z,22.20
2022-08-19T23:14:10.443Z,22.30
2022-08-19T23:16:38.060Z,22.30
2022-08-19T23:19:07.325Z,22.30
2022-08-19T23:21:36.175Z,22.40
2022-08-19T23:24:04.480Z,22.40
2022-08-19T23:26:35.703Z,22.40
2022-08-19T23:29:24.102Z,22.40
2022-08-19T23:31:51.813Z,22.50
2022-08-19T23:34:19.294Z,22.50
2022-08-19T23:36:46.560Z,22.50
2022-08-19T23:39:13.991Z,22.50
2022-08-19T23:41:41.269Z,22.50
2022-08-19T23:44:14.593Z,22.50
2022-08-19T23:46:55.008Z,22.50
2022-08-19T23:49:24.503Z,22.50
2022-08-19T23:51:52.611Z,22.50
2022-08-19T23:54:19.921Z,22.50
2022-08-19T23:56:47.300Z,22.50
2022-08-19T23:59:14.620Z,22.50
